Mc Kee, Kentucky
Current Conditions -  °F | °C
As of 12:55 PM on Tuesday 21 Oct 2014 (Local Time) from KI39 Reporting Station
Overcast Overcast  
Wind Chill: 55°   Ceiling: 5000
Heat Index: 55°   Visibility: 10mi
Dew Point: 43°   Wind: 13mph
Humidity: 63%   Direction: 310°NW
Pressure: 30.05"   Gusts: 17mph
Location:  37.4446°N, 84.0227°W
Report Text: KI39 211655Z AUTO 31011G15KT 10SM SCT021 SCT033 OVC050 13/06 A3005 RMK AO2
Loading
Personal Weather Stations






























Interactive Weather Map
Tropical Storm Tracking
New forecast layout! Learn more

10-Day Weather Forecast

Advertisements
Track Severe Weather on mobile